Newry, Minnesota
Current Conditions -  °F | °C
As of 3:14 AM on Friday 19 Dec 2014 (Local Time) from KTOB Reporting Station
Overcast Overcast  
Wind Chill: 15°   Ceiling: 7500
Heat Index: 21°   Visibility: 7mi
Dew Point: 19°   Wind: 5mph
Humidity: 93%   Direction: 170°S
Pressure: 30.24"   Gusts: NA
Location:  43.9356°N, 93.0454°W
Report Text: KTOB 190914Z AUTO 17004KT 7SM OVC075 M06/M07 A3024 RMK AO2
Loading
Personal Weather Stations






























Interactive Weather Map New forecast layout! Learn more

10-Day Weather Forecast

Advertisements
Track Severe Weather on mobile